createdAt,value
2023-02-11T00:00:32.894Z,101567.06
2023-02-11T00:02:59.264Z,101564.59
2023-02-11T00:05:25.653Z,101576.75
2023-02-11T00:07:52.303Z,101569.69
2023-02-11T00:10:18.686Z,101550.44
2023-02-11T00:12:45.101Z,101550.44
2023-02-11T00:15:11.661Z,101553.00
2023-02-11T00:17:37.999Z,101548.47
2023-02-11T00:20:07.174Z,101562.09
2023-02-11T00:22:34.582Z,101555.88
2023-02-11T00:25:00.955Z,101539.72
2023-02-11T00:27:27.354Z,101534.78
2023-02-11T00:29:53.722Z,101542.25
2023-02-11T00:32:20.079Z,101528.75
2023-02-11T00:34:46.538Z,101518.50
2023-02-11T00:37:13.630Z,101518.06
2023-02-11T00:39:39.980Z,101517.34
2023-02-11T00:42:06.398Z,101509.34
2023-02-11T00:44:32.758Z,101512.81
2023-02-11T00:46:59.105Z,101513.38
2023-02-11T00:49:25.522Z,101502.97
2023-02-11T00:51:52.051Z,101492.06
2023-02-11T00:54:18.432Z,101495.53
2023-02-11T00:56:44.848Z,101480.59
2023-02-11T00:59:11.211Z,101479.66
2023-02-11T01:01:37.681Z,101468.72
2023-02-11T01:04:04.175Z,101459.94
2023-02-11T01:06:30.737Z,101440.97
2023-02-11T01:08:57.079Z,101454.97
2023-02-11T01:11:23.462Z,101439.88
2023-02-11T01:13:50.294Z,101433.56
2023-02-11T01:16:18.517Z,101438.91
2023-02-11T01:18:44.944Z,101466.09
2023-02-11T01:21:11.929Z,101463.03
2023-02-11T01:23:38.350Z,101457.78
2023-02-11T01:26:05.722Z,101475.94
2023-02-11T01:28:32.916Z,101478.22
2023-02-11T01:31:01.317Z,101480.91
2023-02-11T01:33:28.030Z,101479.22
2023-02-11T01:35:54.406Z,101484.72
2023-02-11T01:38:25.961Z,101478.63
2023-02-11T01:40:57.995Z,101474.94
2023-02-11T01:43:25.582Z,101448.88
2023-02-11T01:46:12.651Z,101453.97
2023-02-11T01:48:43.823Z,101437.59
2023-02-11T01:51:20.583Z,101437.78
2023-02-11T01:54:06.693Z,101430.66
2023-02-11T01:56:55.708Z,101435.31
2023-02-11T01:59:32.060Z,101419.31
2023-02-11T02:02:02.401Z,101441.72
2023-02-11T02:04:35.833Z,101417.56
2023-02-11T02:07:08.646Z,101419.34
2023-02-11T02:09:41.896Z,101407.84
2023-02-11T02:12:08.274Z,101412.16
2023-02-11T02:14:38.538Z,101415.88
2023-02-11T02:17:04.905Z,101433.09
2023-02-11T02:20:09.141Z,101406.91
2023-02-11T02:22:58.090Z,101408.91
2023-02-11T02:26:14.710Z,101418.81
2023-02-11T02:29:18.082Z,101415.09
2023-02-11T02:32:16.619Z,101423.91
2023-02-11T02:34:53.964Z,101421.28
2023-02-11T02:37:47.372Z,101398.66
2023-02-11T02:40:21.829Z,101390.53
2023-02-11T02:42:49.206Z,101388.19
2023-02-11T02:45:16.617Z,101391.13
2023-02-11T02:47:44.017Z,101387.28
2023-02-11T02:50:13.524Z,101381.94
2023-02-11T02:53:18.927Z,101381.56
2023-02-11T02:56:00.268Z,101387.22
2023-02-11T02:58:54.436Z,101375.19
2023-02-11T03:01:56.071Z,101382.69
2023-02-11T03:04:38.403Z,101382.84
2023-02-11T03:07:29.150Z,101377.34
2023-02-11T03:10:02.673Z,101388.47
2023-02-11T03:12:32.436Z,101388.19
2023-02-11T03:14:59.455Z,101388.03
2023-02-11T03:17:27.907Z,101397.78
2023-02-11T03:19:55.135Z,101390.53
2023-02-11T03:22:34.927Z,101404.91
2023-02-11T03:25:02.704Z,101393.22
2023-02-11T03:27:38.838Z,101390.16
2023-02-11T03:30:30.499Z,101367.72
2023-02-11T03:33:29.322Z,101330.19
2023-02-11T03:36:01.582Z,101361.38
2023-02-11T03:38:37.909Z,101363.03
2023-02-11T03:41:07.906Z,101344.94
2023-02-11T03:43:38.655Z,101355.44
2023-02-11T03:46:06.209Z,101343.06
2023-02-11T03:48:39.012Z,101329.16
2023-02-11T03:51:07.949Z,101349.75
2023-02-11T03:53:34.824Z,101341.72
2023-02-11T03:56:04.968Z,101329.84
2023-02-11T03:58:31.396Z,101338.31
2023-02-11T04:00:57.910Z,101331.22
2023-02-11T04:03:24.384Z,101316.13
2023-02-11T04:05:51.027Z,101327.31
2023-02-11T04:08:17.495Z,101324.75
2023-02-11T04:10:45.176Z,101329.09
2023-02-11T04:13:11.652Z,101323.91
2023-02-11T04:15:38.029Z,101323.34
2023-02-11T04:18:04.483Z,101316.97
2023-02-11T04:20:30.948Z,101324.34
2023-02-11T04:22:57.288Z,101329.16
2023-02-11T04:25:24.291Z,101335.25
2023-02-11T04:27:50.662Z,101321.88
2023-02-11T04:30:17.040Z,101325.44
2023-02-11T04:32:43.494Z,101321.22
2023-02-11T04:35:09.913Z,101314.75
2023-02-11T04:37:36.302Z,101334.19
2023-02-11T04:40:02.939Z,101348.00
2023-02-11T04:42:29.354Z,101355.25
2023-02-11T04:44:55.700Z,101348.50
2023-02-11T04:47:22.107Z,101363.41
2023-02-11T04:49:48.492Z,101351.91
2023-02-11T04:52:16.201Z,101349.28
2023-02-11T04:54:42.595Z,101351.47
2023-02-11T04:57:08.948Z,101336.59
2023-02-11T04:59:35.329Z,101367.22
2023-02-11T05:02:01.694Z,101363.81
2023-02-11T05:04:28.107Z,101359.91
2023-02-11T05:06:55.637Z,101366.94
2023-02-11T05:09:23.476Z,101356.75
2023-02-11T05:11:49.837Z,101357.75
2023-02-11T05:14:16.204Z,101358.59
2023-02-11T05:16:42.569Z,101350.91
2023-02-11T05:19:08.925Z,101354.69
2023-02-11T05:21:35.372Z,101349.44
2023-02-11T05:24:01.753Z,101343.25
2023-02-11T05:26:28.131Z,101360.94
2023-02-11T05:28:54.501Z,101351.13
2023-02-11T05:31:20.955Z,101340.63
2023-02-11T05:33:47.430Z,101339.63
2023-02-11T05:36:14.335Z,101333.69
2023-02-11T05:38:42.499Z,101340.03
2023-02-11T05:41:09.233Z,101332.00
2023-02-11T05:43:36.505Z,101337.72
2023-02-11T05:46:06.133Z,101328.94
2023-02-11T05:48:32.805Z,101342.81
2023-02-11T05:50:59.560Z,101314.84
2023-02-11T05:53:26.009Z,101310.09
2023-02-11T05:55:52.688Z,101323.66
2023-02-11T05:58:19.203Z,101314.09
2023-02-11T06:00:45.623Z,101325.69
2023-02-11T06:03:12.018Z,101342.03
2023-02-11T06:05:38.466Z,101332.31
2023-02-11T06:08:05.043Z,101302.84
2023-02-11T06:10:31.478Z,101306.22
2023-02-11T06:12:57.804Z,101323.66
2023-02-11T06:15:24.155Z,101306.22
2023-02-11T06:17:50.869Z,101313.00
2023-02-11T06:20:17.418Z,101306.91
2023-02-11T06:22:43.922Z,101312.00
2023-02-11T06:25:11.224Z,101308.53
2023-02-11T06:27:38.142Z,101306.66
2023-02-11T06:30:06.120Z,101309.97
2023-02-11T06:32:43.912Z,101290.41
2023-02-11T06:35:12.241Z,101305.59
2023-02-11T06:37:39.790Z,101297.66
2023-02-11T06:40:06.778Z,101284.31
2023-02-11T06:42:33.131Z,101294.59
2023-02-11T06:44:59.515Z,101281.19
2023-02-11T06:47:25.918Z,101288.81
2023-02-11T06:49:52.283Z,101281.72
2023-02-11T06:52:18.649Z,101295.59
2023-02-11T06:54:46.079Z,101285.44
2023-02-11T06:57:12.435Z,101290.00
2023-02-11T06:59:38.778Z,101272.72
2023-02-11T07:02:05.263Z,101295.75
2023-02-11T07:04:31.658Z,101280.34
2023-02-11T07:06:58.023Z,101287.28
2023-02-11T07:09:24.377Z,101266.59
2023-02-11T07:11:50.713Z,101286.19
2023-02-11T07:14:17.326Z,101264.25
2023-02-11T07:16:43.684Z,101289.81
2023-02-11T07:19:10.385Z,101253.25
2023-02-11T07:21:36.720Z,101283.19
2023-02-11T07:24:08.881Z,101276.25
2023-02-11T07:26:37.051Z,101284.75
2023-02-11T07:29:03.525Z,101308.84
2023-02-11T07:31:31.181Z,101270.84
2023-02-11T07:34:00.257Z,101291.84
2023-02-11T07:36:27.962Z,101278.31
2023-02-11T07:38:54.381Z,101295.06
2023-02-11T07:41:22.988Z,101292.28
2023-02-11T07:43:49.622Z,101290.50
2023-02-11T07:46:35.658Z,101286.94
2023-02-11T07:49:02.090Z,101293.38
2023-02-11T07:51:30.320Z,101304.72
2023-02-11T07:53:59.436Z,101296.59
2023-02-11T07:56:26.255Z,101308.78
2023-02-11T07:58:52.807Z,101291.19
2023-02-11T08:01:24.902Z,101291.34
2023-02-11T08:03:52.254Z,101292.69
2023-02-11T08:06:20.967Z,101285.44
2023-02-11T08:08:47.955Z,101270.59
2023-02-11T08:11:17.419Z,101301.19
2023-02-11T08:13:44.671Z,101300.69
2023-02-11T08:16:19.935Z,101295.34
2023-02-11T08:18:46.740Z,101298.81
2023-02-11T08:21:13.071Z,101305.59
2023-02-11T08:23:40.819Z,101290.72
2023-02-11T08:26:11.017Z,101296.63
2023-02-11T08:28:39.175Z,101298.16
2023-02-11T08:31:07.636Z,101304.06
2023-02-11T08:33:34.696Z,101302.31
2023-02-11T08:36:01.773Z,101295.44
2023-02-11T08:38:28.129Z,101293.84
2023-02-11T08:40:54.485Z,101299.25
2023-02-11T08:43:20.840Z,101295.63
2023-02-11T08:45:47.264Z,101288.81
2023-02-11T08:48:13.636Z,101284.84
2023-02-11T08:50:39.996Z,101275.59
2023-02-11T08:53:06.351Z,101274.16
2023-02-11T08:55:32.694Z,101293.75
2023-02-11T08:57:59.039Z,101293.56
2023-02-11T09:00:25.777Z,101290.25
2023-02-11T09:02:52.242Z,101284.16
2023-02-11T09:05:18.597Z,101294.25
2023-02-11T09:07:44.999Z,101300.50
2023-02-11T09:10:11.356Z,101317.44
2023-02-11T09:12:37.711Z,101308.81
2023-02-11T09:15:04.364Z,101295.31
2023-02-11T09:17:30.710Z,101307.09
2023-02-11T09:19:57.076Z,101303.38
2023-02-11T09:22:23.449Z,101305.06
2023-02-11T09:24:49.924Z,101315.41
2023-02-11T09:27:16.270Z,101308.13
2023-02-11T09:29:42.625Z,101301.19
2023-02-11T09:32:10.011Z,101317.13
2023-02-11T09:34:36.695Z,101344.94
2023-02-11T09:37:03.144Z,101330.34
2023-02-11T09:39:29.843Z,101310.16
2023-02-11T09:42:20.776Z,101346.97
2023-02-11T09:44:47.597Z,101336.63
2023-02-11T09:47:31.962Z,101321.94
2023-02-11T09:50:13.649Z,101317.97
2023-02-11T09:53:02.778Z,101313.38
2023-02-11T09:55:42.477Z,101308.72
2023-02-11T09:58:21.150Z,101314.03
2023-02-11T10:01:10.681Z,101320.31
2023-02-11T10:03:43.376Z,101318.53
2023-02-11T10:06:24.465Z,101321.09
2023-02-11T10:09:01.536Z,101319.63
2023-02-11T10:11:39.284Z,101310.16
2023-02-11T10:14:33.959Z,101308.78
2023-02-11T10:17:21.538Z,101305.03
2023-02-11T10:20:16.948Z,101294.56
2023-02-11T10:23:19.249Z,101300.25
2023-02-11T10:25:50.673Z,101305.25
2023-02-11T10:28:20.211Z,101302.63
2023-02-11T10:31:15.793Z,101288.88
2023-02-11T10:33:52.321Z,101303.47
2023-02-11T10:36:19.702Z,101297.38
2023-02-11T10:38:46.076Z,101291.75
2023-02-11T10:41:25.024Z,101310.56
2023-02-11T10:43:52.166Z,101314.09
2023-02-11T10:46:24.043Z,101304.75
2023-02-11T10:48:53.632Z,101307.44
2023-02-11T10:51:34.206Z,101300.03
2023-02-11T10:54:03.496Z,101309.81
2023-02-11T10:56:32.620Z,101294.03
2023-02-11T10:59:01.700Z,101277.22
2023-02-11T11:01:40.748Z,101282.31
2023-02-11T11:04:40.211Z,101269.03
2023-02-11T11:07:22.741Z,101275.97
2023-02-11T11:09:55.750Z,101280.22
2023-02-11T11:12:32.956Z,101289.72
2023-02-11T11:15:02.458Z,101305.31
2023-02-11T11:17:29.177Z,101280.22
2023-02-11T11:20:15.884Z,101286.06
2023-02-11T11:22:43.167Z,101308.72
2023-02-11T11:25:29.246Z,101296.13
2023-02-11T11:27:59.153Z,101289.66
2023-02-11T11:30:32.976Z,101291.06
2023-02-11T11:33:00.821Z,101286.53
2023-02-11T11:35:29.855Z,101301.41
2023-02-11T11:38:02.345Z,101280.16
2023-02-11T11:40:31.401Z,101283.53
2023-02-11T11:43:23.255Z,101274.31
2023-02-11T11:45:56.449Z,101284.94
2023-02-11T11:48:28.328Z,101286.91
2023-02-11T11:51:02.163Z,101275.34
2023-02-11T11:53:41.204Z,101293.41
2023-02-11T11:56:28.675Z,101291.63
2023-02-11T11:58:55.039Z,101281.06
2023-02-11T12:01:58.914Z,101295.00
2023-02-11T12:05:15.355Z,101301.13
2023-02-11T12:08:05.574Z,101308.94
2023-02-11T12:10:44.057Z,101314.38
2023-02-11T12:13:39.387Z,101325.47
2023-02-11T12:16:28.384Z,101316.06
2023-02-11T12:19:13.595Z,101298.41
2023-02-11T12:21:58.283Z,101307.41
2023-02-11T12:24:45.090Z,101319.66
2023-02-11T12:27:43.872Z,101295.19
2023-02-11T12:30:25.035Z,101302.16
2023-02-11T12:33:39.925Z,101317.19
2023-02-11T12:36:32.438Z,101308.56
2023-02-11T12:39:16.719Z,101328.84
2023-02-11T12:42:38.030Z,101311.56
2023-02-11T12:45:14.002Z,101324.63
2023-02-11T12:48:04.876Z,101311.56
2023-02-11T12:50:46.227Z,101313.53
2023-02-11T12:53:37.506Z,101294.03
2023-02-11T12:56:18.208Z,101285.22
2023-02-11T12:58:47.531Z,101301.75
2023-02-11T13:01:23.529Z,101285.03
2023-02-11T13:04:13.502Z,101303.75
2023-02-11T13:06:51.880Z,101308.34
2023-02-11T13:09:34.696Z,101280.63
2023-02-11T13:12:24.267Z,101287.09
2023-02-11T13:14:54.401Z,101269.81
2023-02-11T13:17:29.922Z,101271.41
2023-02-11T13:20:08.018Z,101294.63
2023-02-11T13:22:44.030Z,101277.88
2023-02-11T13:25:26.380Z,101270.16
2023-02-11T13:28:25.628Z,101246.28
2023-02-11T13:31:02.150Z,101255.97
2023-02-11T13:33:35.308Z,101246.84
2023-02-11T13:36:04.394Z,101249.69
2023-02-11T13:38:32.431Z,101258.34
2023-02-11T13:41:24.650Z,101255.97
2023-02-11T13:44:04.082Z,101252.31
2023-02-11T13:46:54.100Z,101243.44
2023-02-11T13:49:24.573Z,101259.06
2023-02-11T13:51:52.388Z,101257.00
2023-02-11T13:54:39.595Z,101246.28
2023-02-11T13:57:21.002Z,101255.00
2023-02-11T13:59:51.680Z,101227.66
2023-02-11T14:02:44.257Z,101239.31
2023-02-11T14:09:01.811Z,101243.44
2023-02-11T14:11:34.057Z,101252.31
2023-02-11T14:14:18.783Z,101283.53
2023-02-11T14:17:11.210Z,101278.91
2023-02-11T14:19:40.804Z,101285.13
2023-02-11T14:22:40.250Z,101276.28
2023-02-11T14:25:20.112Z,101291.63
2023-02-11T14:27:54.455Z,101284.75
2023-02-11T14:30:30.534Z,101272.22
2023-02-11T14:33:14.162Z,101263.78
2023-02-11T14:36:07.001Z,101257.38
2023-02-11T14:38:51.446Z,101269.69
2023-02-11T14:41:24.508Z,101277.03
2023-02-11T14:43:57.763Z,101272.78
2023-02-11T14:46:27.830Z,101271.13
2023-02-11T14:48:58.178Z,101282.69
2023-02-11T14:51:28.114Z,101278.16
2023-02-11T14:53:59.208Z,101265.00
2023-02-11T14:56:31.232Z,101275.44
2023-02-11T14:58:58.318Z,101260.38
2023-02-11T15:01:33.854Z,101247.94
2023-02-11T15:04:02.875Z,101248.88
2023-02-11T15:06:36.724Z,101275.34
2023-02-11T15:09:16.591Z,101277.88
2023-02-11T15:11:46.520Z,101271.13
2023-02-11T15:14:28.381Z,101299.97
2023-02-11T15:16:58.292Z,101277.88
2023-02-11T15:19:38.929Z,101309.47
2023-02-11T15:22:10.582Z,101275.59
2023-02-11T15:24:39.251Z,101267.34
2023-02-11T15:27:08.602Z,101296.88
2023-02-11T15:29:41.227Z,101270.34
2023-02-11T15:32:17.686Z,101269.38
2023-02-11T15:34:45.970Z,101294.06
2023-02-11T15:37:24.807Z,101284.16
2023-02-11T15:39:52.449Z,101293.09
2023-02-11T15:42:27.689Z,101289.53
2023-02-11T15:45:13.670Z,101275.59
2023-02-11T15:47:53.001Z,101288.03
2023-02-11T15:50:24.433Z,101280.31
2023-02-11T15:52:52.418Z,101281.25
2023-02-11T15:55:20.471Z,101284.94
2023-02-11T15:57:54.772Z,101286.16
2023-02-11T16:00:24.657Z,101306.84
2023-02-11T16:02:52.381Z,101300.47
2023-02-11T16:05:28.201Z,101297.06
2023-02-11T16:07:55.673Z,101314.22
2023-02-11T16:10:40.008Z,101303.28
2023-02-11T16:13:06.310Z,101303.47
2023-02-11T16:15:38.144Z,101321.34
2023-02-11T16:18:14.088Z,101320.50
2023-02-11T16:20:40.875Z,101360.25
2023-02-11T16:23:07.837Z,101328.19
2023-02-11T16:25:37.610Z,101335.25
2023-02-11T16:28:05.607Z,101327.53
2023-02-11T16:30:36.406Z,101326.31
2023-02-11T16:33:04.156Z,101327.63
2023-02-11T16:35:30.630Z,101341.06
2023-02-11T16:37:57.380Z,101346.22
2023-02-11T16:40:24.024Z,101335.81
2023-02-11T16:42:52.357Z,101340.50
2023-02-11T16:45:18.924Z,101320.66
2023-02-11T16:47:46.129Z,101318.28
2023-02-11T16:50:22.504Z,101342.91
2023-02-11T16:52:49.179Z,101320.16
2023-02-11T16:55:15.665Z,101329.16
2023-02-11T16:57:42.005Z,101319.00
2023-02-11T17:00:08.932Z,101329.88
2023-02-11T17:02:36.965Z,101336.34
2023-02-11T17:05:08.555Z,101332.81
2023-02-11T17:07:35.290Z,101340.09
2023-02-11T17:10:02.037Z,101344.53
2023-02-11T17:12:28.390Z,101349.97
2023-02-11T17:14:54.750Z,101358.78
2023-02-11T17:17:23.864Z,101343.00
2023-02-11T17:19:51.114Z,101354.88
2023-02-11T17:22:18.412Z,101347.06
2023-02-11T17:24:44.751Z,101344.00
2023-02-11T17:27:11.762Z,101344.47
2023-02-11T17:29:38.140Z,101349.06
2023-02-11T17:32:04.619Z,101367.03
2023-02-11T17:34:32.264Z,101366.19
2023-02-11T17:37:00.073Z,101374.84
2023-02-11T17:39:27.506Z,101383.50
2023-02-11T17:41:53.881Z,101372.34
2023-02-11T17:44:20.454Z,101362.84
2023-02-11T17:46:46.834Z,101360.88
2023-02-11T17:49:13.211Z,101366.22
2023-02-11T17:51:40.246Z,101366.03
2023-02-11T17:54:10.807Z,101373.19
2023-02-11T17:56:37.653Z,101375.66
2023-02-11T17:59:05.340Z,101398.75
2023-02-11T18:01:33.370Z,101390.50
2023-02-11T18:04:00.777Z,101388.97
2023-02-11T18:06:28.967Z,101394.81
2023-02-11T18:08:58.009Z,101408.81
2023-02-11T18:11:25.246Z,101411.75
2023-02-11T18:13:54.468Z,101411.56
2023-02-11T18:16:22.357Z,101425.81
2023-02-11T18:18:49.778Z,101424.72
2023-02-11T18:21:20.756Z,101411.81
2023-02-11T18:23:48.037Z,101407.56
2023-02-11T18:26:16.140Z,101430.00
2023-02-11T18:28:45.561Z,101427.19
2023-02-11T18:31:13.714Z,101429.22
2023-02-11T18:33:41.425Z,101438.13
2023-02-11T18:36:09.751Z,101435.44
2023-02-11T18:38:36.569Z,101432.88
2023-02-11T18:41:04.041Z,101442.47
2023-02-11T18:43:31.652Z,101442.56
2023-02-11T18:45:58.401Z,101439.16
2023-02-11T18:48:26.996Z,101454.78
2023-02-11T18:50:54.470Z,101446.56
2023-02-11T18:53:21.248Z,101465.31
2023-02-11T18:55:47.811Z,101472.28
2023-02-11T18:58:15.349Z,101458.34
2023-02-11T19:00:44.484Z,101467.78
2023-02-11T19:03:11.125Z,101470.41
2023-02-11T19:05:46.510Z,101481.25
2023-02-11T19:08:13.661Z,101476.06
2023-02-11T19:10:42.397Z,101491.13
2023-02-11T19:13:10.148Z,101480.94
2023-02-11T19:15:41.422Z,101494.84
2023-02-11T19:18:07.801Z,101492.56
2023-02-11T19:20:34.163Z,101486.34
2023-02-11T19:23:00.832Z,101512.97
2023-02-11T19:25:27.473Z,101509.81
2023-02-11T19:27:53.843Z,101523.81
2023-02-11T19:30:20.252Z,101518.63
2023-02-11T19:32:46.579Z,101516.44
2023-02-11T19:35:12.941Z,101516.09
2023-02-11T19:37:39.291Z,101536.88
2023-02-11T19:40:06.383Z,101528.41
2023-02-11T19:42:32.725Z,101542.16
2023-02-11T19:44:59.120Z,101535.31
2023-02-11T19:47:27.609Z,101538.84
2023-02-11T19:49:54.395Z,101530.84
2023-02-11T19:52:20.837Z,101540.97
2023-02-11T19:54:47.218Z,101533.25
2023-02-11T19:57:13.571Z,101540.56
2023-02-11T19:59:40.008Z,101547.41
2023-02-11T20:02:06.603Z,101552.84
2023-02-11T20:04:33.270Z,101544.94
2023-02-11T20:07:00.908Z,101562.47
2023-02-11T20:09:28.941Z,101562.47
2023-02-11T20:11:55.309Z,101575.72
2023-02-11T20:14:21.660Z,101565.66
2023-02-11T20:16:49.932Z,101573.22
2023-02-11T20:19:19.195Z,101591.25
2023-02-11T20:21:47.921Z,101582.41
2023-02-11T20:24:18.042Z,101590.63
2023-02-11T20:26:46.750Z,101574.34
2023-02-11T20:29:13.127Z,101575.63
2023-02-11T20:31:39.567Z,101571.88
2023-02-11T20:34:05.970Z,101581.06
2023-02-11T20:36:35.590Z,101593.50
2023-02-11T20:39:02.996Z,101564.50
2023-02-11T20:41:34.142Z,101562.81
2023-02-11T20:44:04.390Z,101559.06
2023-02-11T20:46:32.866Z,101551.75
2023-02-11T20:49:00.430Z,101539.78
2023-02-11T20:51:29.730Z,101540.28
2023-02-11T20:53:56.721Z,101566.44
2023-02-11T20:56:29.019Z,101571.78
2023-02-11T20:58:57.576Z,101542.06
2023-02-11T21:01:27.216Z,101529.66
2023-02-11T21:04:00.804Z,101545.78
2023-02-11T21:06:30.918Z,101550.38
2023-02-11T21:08:57.544Z,101551.88
2023-02-11T21:11:24.157Z,101563.63
2023-02-11T21:13:51.041Z,101564.56
2023-02-11T21:16:22.876Z,101566.44
2023-02-11T21:18:50.489Z,101564.31
2023-02-11T21:21:17.298Z,101570.25
2023-02-11T21:23:43.843Z,101577.13
2023-02-11T21:26:10.458Z,101572.94
2023-02-11T21:28:40.522Z,101572.38
2023-02-11T21:31:07.642Z,101568.97
2023-02-11T21:33:34.625Z,101581.97
2023-02-11T21:36:03.524Z,101589.44
2023-02-11T21:38:30.411Z,101585.38
2023-02-11T21:41:03.079Z,101590.78
2023-02-11T21:43:29.841Z,101592.66
2023-02-11T21:45:56.437Z,101589.78
2023-02-11T21:48:23.827Z,101605.75
2023-02-11T21:50:50.524Z,101607.25
2023-02-11T21:53:16.912Z,101596.56
2023-02-11T21:55:43.619Z,101620.44
2023-02-11T21:58:11.049Z,101607.53
2023-02-11T22:00:37.516Z,101612.63
2023-02-11T22:03:03.943Z,101627.00
2023-02-11T22:05:30.392Z,101631.31
2023-02-11T22:07:56.799Z,101618.31
2023-02-11T22:10:23.687Z,101628.19
2023-02-11T22:12:50.047Z,101622.31
2023-02-11T22:15:16.485Z,101615.09
2023-02-11T22:17:42.855Z,101627.34
2023-02-11T22:20:10.162Z,101629.97
2023-02-11T22:22:36.536Z,101631.59
2023-02-11T22:25:04.000Z,101630.72
2023-02-11T22:27:30.712Z,101630.97
2023-02-11T22:29:57.068Z,101641.94
2023-02-11T22:32:23.455Z,101644.47
2023-02-11T22:34:52.180Z,101636.34
2023-02-11T22:37:19.667Z,101638.88
2023-02-11T22:39:46.031Z,101651.97
2023-02-11T22:42:12.404Z,101655.63
2023-02-11T22:44:38.744Z,101646.03
2023-02-11T22:47:05.100Z,101647.03
2023-02-11T22:49:33.122Z,101654.66
2023-02-11T22:51:59.954Z,101647.72
2023-02-11T22:54:26.395Z,101660.78
2023-02-11T22:56:53.337Z,101677.28
2023-02-11T22:59:20.691Z,101670.31
2023-02-11T23:01:48.788Z,101670.13
2023-02-11T23:04:17.076Z,101676.09
2023-02-11T23:06:43.891Z,101691.19
2023-02-11T23:09:12.369Z,101683.28
2023-02-11T23:11:40.468Z,101684.16
2023-02-11T23:14:08.618Z,101681.53
2023-02-11T23:16:35.413Z,101682.56
2023-02-11T23:19:06.171Z,101691.38
2023-02-11T23:21:35.706Z,101680.66
2023-02-11T23:24:05.976Z,101694.78
2023-02-11T23:26:32.457Z,101690.28
2023-02-11T23:28:59.456Z,101689.50
2023-02-11T23:31:34.633Z,101690.28
2023-02-11T23:34:01.612Z,101706.50
2023-02-11T23:36:28.488Z,101697.84
2023-02-11T23:38:55.247Z,101702.94
2023-02-11T23:41:21.686Z,101695.03
2023-02-11T23:43:53.269Z,101696.06
2023-02-11T23:46:22.099Z,101700.66
2023-02-11T23:48:49.310Z,101702.28
2023-02-11T23:51:16.099Z,101695.94
2023-02-11T23:53:42.584Z,101696.31
2023-02-11T23:56:11.128Z,101699.47
2023-02-11T23:58:37.513Z,101705.66
